sensor_id;sensor_type;location;lat;lon;timestamp;temperature;humidity
19340;HTU21D;9804;52.350;6.684;2022-07-29T00:02:05;19.81;-6.00
19340;HTU21D;9804;52.350;6.684;2022-07-29T00:04:30;19.71;-6.00
19340;HTU21D;9804;52.350;6.684;2022-07-29T00:06:58;19.70;-6.00
19340;HTU21D;9804;52.350;6.684;2022-07-29T00:09:24;19.85;-6.00
19340;HTU21D;9804;52.350;6.684;2022-07-29T00:11:49;19.85;-6.00
19340;HTU21D;9804;52.350;6.684;2022-07-29T00:14:14;19.86;-6.00
19340;HTU21D;9804;52.350;6.684;2022-07-29T00:16:40;19.55;-6.00
19340;HTU21D;9804;52.350;6.684;2022-07-29T00:19:05;19.54;-6.00
19340;HTU21D;9804;52.350;6.684;2022-07-29T00:21:30;19.66;-6.00
19340;HTU21D;9804;52.350;6.684;2022-07-29T00:23:56;19.54;-6.00
19340;HTU21D;9804;52.350;6.684;2022-07-29T00:26:21;19.59;-6.00
19340;HTU21D;9804;52.350;6.684;2022-07-29T00:28:46;19.42;-6.00
19340;HTU21D;9804;52.350;6.684;2022-07-29T00:31:12;19.57;-6.00
19340;HTU21D;9804;52.350;6.684;2022-07-29T00:33:37;19.63;-6.00
19340;HTU21D;9804;52.350;6.684;2022-07-29T00:36:03;19.67;-6.00
19340;HTU21D;9804;52.350;6.684;2022-07-29T00:38:28;19.54;-6.00
19340;HTU21D;9804;52.350;6.684;2022-07-29T00:40:54;19.59;-6.00
19340;HTU21D;9804;52.350;6.684;2022-07-29T00:43:19;19.56;-6.00
19340;HTU21D;9804;52.350;6.684;2022-07-29T00:45:45;19.58;-6.00
19340;HTU21D;9804;52.350;6.684;2022-07-29T00:48:11;19.38;-6.00
19340;HTU21D;9804;52.350;6.684;2022-07-29T00:50:37;19.39;-6.00
19340;HTU21D;9804;52.350;6.684;2022-07-29T00:53:04;19.51;-6.00
19340;HTU21D;9804;52.350;6.684;2022-07-29T00:55:30;19.56;-6.00
19340;HTU21D;9804;52.350;6.684;2022-07-29T00:57:57;19.37;-6.00
19340;HTU21D;9804;52.350;6.684;2022-07-29T01:00:24;19.43;-6.00
19340;HTU21D;9804;52.350;6.684;2022-07-29T01:02:50;19.46;-6.00
19340;HTU21D;9804;52.350;6.684;2022-07-29T01:05:21;19.37;-6.00
19340;HTU21D;9804;52.350;6.684;2022-07-29T01:07:49;19.55;-6.00
19340;HTU21D;9804;52.350;6.684;2022-07-29T01:10:18;19.39;-6.00
19340;HTU21D;9804;52.350;6.684;2022-07-29T01:12:46;19.32;-6.00
19340;HTU21D;9804;52.350;6.684;2022-07-29T01:15:13;19.20;-6.00
19340;HTU21D;9804;52.350;6.684;2022-07-29T01:22:53;19.42;-6.00
19340;HTU21D;9804;52.350;6.684;2022-07-29T01:31:04;19.35;-6.00
19340;HTU21D;9804;52.350;6.684;2022-07-29T01:33:33;19.15;-6.00
19340;HTU21D;9804;52.350;6.684;2022-07-29T01:36:23;19.26;-6.00
19340;HTU21D;9804;52.350;6.684;2022-07-29T01:38:56;19.13;-6.00
19340;HTU21D;9804;52.350;6.684;2022-07-29T01:41:26;19.23;-6.00
19340;HTU21D;9804;52.350;6.684;2022-07-29T01:44:11;19.17;-6.00
19340;HTU21D;9804;52.350;6.684;2022-07-29T01:46:40;19.38;-6.00
19340;HTU21D;9804;52.350;6.684;2022-07-29T01:49:11;19.38;-6.00
19340;HTU21D;9804;52.350;6.684;2022-07-29T01:51:46;19.01;-6.00
19340;HTU21D;9804;52.350;6.684;2022-07-29T01:54:30;19.15;-6.00
19340;HTU21D;9804;52.350;6.684;2022-07-29T01:56:58;19.07;-6.00
19340;HTU21D;9804;52.350;6.684;2022-07-29T01:59:25;19.16;-6.00
19340;HTU21D;9804;52.350;6.684;2022-07-29T02:01:53;19.15;-6.00
19340;HTU21D;9804;52.350;6.684;2022-07-29T02:04:20;19.26;-6.00
19340;HTU21D;9804;52.350;6.684;2022-07-29T02:06:48;19.14;-6.00
19340;HTU21D;9804;52.350;6.684;2022-07-29T02:09:14;19.18;-6.00
19340;HTU21D;9804;52.350;6.684;2022-07-29T02:11:47;19.06;-6.00
19340;HTU21D;9804;52.350;6.684;2022-07-29T02:14:14;19.11;-6.00
19340;HTU21D;9804;52.350;6.684;2022-07-29T02:16:41;18.97;-6.00
19340;HTU21D;9804;52.350;6.684;2022-07-29T02:19:08;19.05;-6.00
19340;HTU21D;9804;52.350;6.684;2022-07-29T02:21:35;18.85;-6.00
19340;HTU21D;9804;52.350;6.684;2022-07-29T02:24:01;19.03;-6.00
19340;HTU21D;9804;52.350;6.684;2022-07-29T02:26:27;19.01;-6.00
19340;HTU21D;9804;52.350;6.684;2022-07-29T02:28:56;18.93;-6.00
19340;HTU21D;9804;52.350;6.684;2022-07-29T02:31:25;18.89;-6.00
19340;HTU21D;9804;52.350;6.684;2022-07-29T02:33:51;19.10;-6.00
19340;HTU21D;9804;52.350;6.684;2022-07-29T02:36:21;18.99;-6.00
19340;HTU21D;9804;52.350;6.684;2022-07-29T02:38:47;19.00;-6.00
19340;HTU21D;9804;52.350;6.684;2022-07-29T02:41:49;18.88;-6.00
19340;HTU21D;9804;52.350;6.684;2022-07-29T02:44:20;18.68;-6.00
19340;HTU21D;9804;52.350;6.684;2022-07-29T02:46:50;18.72;-6.00
19340;HTU21D;9804;52.350;6.684;2022-07-29T02:49:31;18.79;-6.00
19340;HTU21D;9804;52.350;6.684;2022-07-29T02:52:02;18.69;-6.00
19340;HTU21D;9804;52.350;6.684;2022-07-29T02:54:39;18.43;-6.00
19340;HTU21D;9804;52.350;6.684;2022-07-29T02:57:21;18.58;-6.00
19340;HTU21D;9804;52.350;6.684;2022-07-29T02:59:50;18.57;-6.00
19340;HTU21D;9804;52.350;6.684;2022-07-29T03:02:17;18.73;-6.00
19340;HTU21D;9804;52.350;6.684;2022-07-29T03:04:43;18.69;-6.00
19340;HTU21D;9804;52.350;6.684;2022-07-29T03:07:11;18.67;-6.00
19340;HTU21D;9804;52.350;6.684;2022-07-29T03:09:38;18.66;-6.00
19340;HTU21D;9804;52.350;6.684;2022-07-29T03:12:04;18.72;-6.00
19340;HTU21D;9804;52.350;6.684;2022-07-29T03:14:30;18.74;-6.00
19340;HTU21D;9804;52.350;6.684;2022-07-29T03:16:57;18.70;-6.00
19340;HTU21D;9804;52.350;6.684;2022-07-29T03:19:22;18.74;-6.00
19340;HTU21D;9804;52.350;6.684;2022-07-29T03:21:48;18.72;-6.00
19340;HTU21D;9804;52.350;6.684;2022-07-29T03:24:30;18.59;-6.00
19340;HTU21D;9804;52.350;6.684;2022-07-29T03:26:56;18.69;-6.00
19340;HTU21D;9804;52.350;6.684;2022-07-29T03:29:23;18.58;-6.00
19340;HTU21D;9804;52.350;6.684;2022-07-29T03:31:48;18.68;-6.00
19340;HTU21D;9804;52.350;6.684;2022-07-29T03:34:14;18.61;-6.00
19340;HTU21D;9804;52.350;6.684;2022-07-29T03:36:39;18.37;-6.00
19340;HTU21D;9804;52.350;6.684;2022-07-29T03:39:05;18.44;-6.00
19340;HTU21D;9804;52.350;6.684;2022-07-29T03:41:31;18.51;-6.00
19340;HTU21D;9804;52.350;6.684;2022-07-29T03:43:58;18.52;-6.00
19340;HTU21D;9804;52.350;6.684;2022-07-29T03:46:26;18.67;-6.00
19340;HTU21D;9804;52.350;6.684;2022-07-29T03:48:58;18.65;-6.00
19340;HTU21D;9804;52.350;6.684;2022-07-29T03:51:25;18.47;-6.00
19340;HTU21D;9804;52.350;6.684;2022-07-29T03:53:51;18.68;-6.00
19340;HTU21D;9804;52.350;6.684;2022-07-29T03:56:19;18.47;-6.00
19340;HTU21D;9804;52.350;6.684;2022-07-29T03:58:46;18.47;-6.00
19340;HTU21D;9804;52.350;6.684;2022-07-29T04:01:12;18.47;-6.00
19340;HTU21D;9804;52.350;6.684;2022-07-29T04:03:38;18.48;-6.00
19340;HTU21D;9804;52.350;6.684;2022-07-29T04:06:06;18.59;-6.00
19340;HTU21D;9804;52.350;6.684;2022-07-29T04:08:32;18.49;-6.00
19340;HTU21D;9804;52.350;6.684;2022-07-29T04:10:58;18.55;-6.00
19340;HTU21D;9804;52.350;6.684;2022-07-29T04:13:24;18.51;-6.00
19340;HTU21D;9804;52.350;6.684;2022-07-29T04:15:49;18.48;-6.00
19340;HTU21D;9804;52.350;6.684;2022-07-29T04:18:15;18.64;-6.00
19340;HTU21D;9804;52.350;6.684;2022-07-29T04:20:40;18.73;-6.00
19340;HTU21D;9804;52.350;6.684;2022-07-29T04:23:05;18.67;-6.00
19340;HTU21D;9804;52.350;6.684;2022-07-29T04:25:31;18.74;-6.00
19340;HTU21D;9804;52.350;6.684;2022-07-29T04:27:56;18.80;-6.00
19340;HTU21D;9804;52.350;6.684;2022-07-29T04:30:27;18.77;-6.00
19340;HTU21D;9804;52.350;6.684;2022-07-29T04:32:53;18.66;-6.00
19340;HTU21D;9804;52.350;6.684;2022-07-29T04:35:19;18.76;-6.00
19340;HTU21D;9804;52.350;6.684;2022-07-29T04:37:44;18.81;-6.00
19340;HTU21D;9804;52.350;6.684;2022-07-29T04:40:10;18.87;-6.00
19340;HTU21D;9804;52.350;6.684;2022-07-29T04:42:37;18.83;-6.00
19340;HTU21D;9804;52.350;6.684;2022-07-29T04:45:02;18.88;-6.00
19340;HTU21D;9804;52.350;6.684;2022-07-29T04:47:28;19.01;-6.00
19340;HTU21D;9804;52.350;6.684;2022-07-29T04:49:53;19.08;-6.00
19340;HTU21D;9804;52.350;6.684;2022-07-29T04:52:18;18.88;-6.00
19340;HTU21D;9804;52.350;6.684;2022-07-29T04:54:44;19.00;-6.00
19340;HTU21D;9804;52.350;6.684;2022-07-29T04:57:09;19.07;-6.00
19340;HTU21D;9804;52.350;6.684;2022-07-29T04:59:34;19.28;-6.00
19340;HTU21D;9804;52.350;6.684;2022-07-29T05:01:59;19.17;-6.00
19340;HTU21D;9804;52.350;6.684;2022-07-29T05:04:25;19.38;-6.00
19340;HTU21D;9804;52.350;6.684;2022-07-29T05:06:50;19.20;-6.00
19340;HTU21D;9804;52.350;6.684;2022-07-29T05:09:16;19.03;-6.00
19340;HTU21D;9804;52.350;6.684;2022-07-29T05:11:41;19.03;-6.00
19340;HTU21D;9804;52.350;6.684;2022-07-29T05:14:06;19.03;-6.00
19340;HTU21D;9804;52.350;6.684;2022-07-29T05:16:32;19.13;-6.00
19340;HTU21D;9804;52.350;6.684;2022-07-29T05:18:57;19.09;-6.00
19340;HTU21D;9804;52.350;6.684;2022-07-29T05:21:22;18.91;-6.00
19340;HTU21D;9804;52.350;6.684;2022-07-29T05:23:48;19.12;-6.00
19340;HTU21D;9804;52.350;6.684;2022-07-29T05:26:13;19.24;-6.00
19340;HTU21D;9804;52.350;6.684;2022-07-29T05:28:38;19.27;-6.00
19340;HTU21D;9804;52.350;6.684;2022-07-29T05:31:04;19.32;-6.00
19340;HTU21D;9804;52.350;6.684;2022-07-29T05:33:29;19.53;-6.00
19340;HTU21D;9804;52.350;6.684;2022-07-29T05:35:54;19.58;-6.00
19340;HTU21D;9804;52.350;6.684;2022-07-29T05:38:20;19.40;-6.00
19340;HTU21D;9804;52.350;6.684;2022-07-29T05:40:46;19.59;-6.00
19340;HTU21D;9804;52.350;6.684;2022-07-29T05:43:11;19.55;-6.00
19340;HTU21D;9804;52.350;6.684;2022-07-29T05:45:38;19.60;-6.00
19340;HTU21D;9804;52.350;6.684;2022-07-29T05:48:03;19.59;-6.00
19340;HTU21D;9804;52.350;6.684;2022-07-29T05:50:29;19.80;-6.00
19340;HTU21D;9804;52.350;6.684;2022-07-29T05:52:54;19.83;-6.00
19340;HTU21D;9804;52.350;6.684;2022-07-29T05:55:19;19.84;-6.00
19340;HTU21D;9804;52.350;6.684;2022-07-29T05:57:45;19.71;-6.00
19340;HTU21D;9804;52.350;6.684;2022-07-29T06:00:11;19.84;-6.00
19340;HTU21D;9804;52.350;6.684;2022-07-29T06:02:36;19.61;-6.00
19340;HTU21D;9804;52.350;6.684;2022-07-29T06:05:02;19.71;-6.00
19340;HTU21D;9804;52.350;6.684;2022-07-29T06:07:27;19.92;-6.00
19340;HTU21D;9804;52.350;6.684;2022-07-29T06:09:53;19.90;-6.00
19340;HTU21D;9804;52.350;6.684;2022-07-29T06:12:18;19.76;-6.00
19340;HTU21D;9804;52.350;6.684;2022-07-29T06:14:44;19.79;-6.00
19340;HTU21D;9804;52.350;6.684;2022-07-29T06:17:10;19.59;-6.00
19340;HTU21D;9804;52.350;6.684;2022-07-29T06:19:36;19.40;-6.00
19340;HTU21D;9804;52.350;6.684;2022-07-29T06:22:02;19.39;-6.00
19340;HTU21D;9804;52.350;6.684;2022-07-29T06:24:28;19.50;-6.00
19340;HTU21D;9804;52.350;6.684;2022-07-29T06:26:53;19.26;-6.00
19340;HTU21D;9804;52.350;6.684;2022-07-29T06:29:18;19.35;-6.00
19340;HTU21D;9804;52.350;6.684;2022-07-29T06:31:44;19.13;-6.00
19340;HTU21D;9804;52.350;6.684;2022-07-29T06:34:09;19.17;-6.00
19340;HTU21D;9804;52.350;6.684;2022-07-29T06:36:35;19.28;-6.00
19340;HTU21D;9804;52.350;6.684;2022-07-29T06:39:04;19.27;-6.00
19340;HTU21D;9804;52.350;6.684;2022-07-29T06:41:30;19.25;-6.00
19340;HTU21D;9804;52.350;6.684;2022-07-29T06:43:55;19.38;-6.00
19340;HTU21D;9804;52.350;6.684;2022-07-29T06:46:21;19.15;-6.00
19340;HTU21D;9804;52.350;6.684;2022-07-29T06:48:47;18.71;-6.00
19340;HTU21D;9804;52.350;6.684;2022-07-29T06:51:13;18.52;-6.00
19340;HTU21D;9804;52.350;6.684;2022-07-29T06:53:39;18.34;-6.00
19340;HTU21D;9804;52.350;6.684;2022-07-29T06:56:06;18.73;-6.00
19340;HTU21D;9804;52.350;6.684;2022-07-29T06:58:34;18.93;-6.00
19340;HTU21D;9804;52.350;6.684;2022-07-29T07:01:02;18.96;-6.00
19340;HTU21D;9804;52.350;6.684;2022-07-29T07:03:28;18.88;-6.00
19340;HTU21D;9804;52.350;6.684;2022-07-29T07:05:54;18.98;-6.00
19340;HTU21D;9804;52.350;6.684;2022-07-29T07:08:21;18.76;-6.00
19340;HTU21D;9804;52.350;6.684;2022-07-29T07:10:47;18.54;-6.00
19340;HTU21D;9804;52.350;6.684;2022-07-29T07:13:12;18.52;-6.00
19340;HTU21D;9804;52.350;6.684;2022-07-29T07:15:38;18.50;-6.00
19340;HTU21D;9804;52.350;6.684;2022-07-29T07:18:05;18.46;-6.00
19340;HTU21D;9804;52.350;6.684;2022-07-29T07:20:34;18.73;-6.00
19340;HTU21D;9804;52.350;6.684;2022-07-29T07:23:00;18.68;-6.00
19340;HTU21D;9804;52.350;6.684;2022-07-29T07:25:26;18.64;-6.00
19340;HTU21D;9804;52.350;6.684;2022-07-29T07:27:51;18.64;-6.00
19340;HTU21D;9804;52.350;6.684;2022-07-29T07:30:16;18.70;-6.00
19340;HTU21D;9804;52.350;6.684;2022-07-29T07:32:42;18.53;-6.00
19340;HTU21D;9804;52.350;6.684;2022-07-29T07:35:08;18.66;-6.00
19340;HTU21D;9804;52.350;6.684;2022-07-29T07:37:34;18.42;-6.00
19340;HTU21D;9804;52.350;6.684;2022-07-29T07:40:00;18.70;-6.00
19340;HTU21D;9804;52.350;6.684;2022-07-29T07:42:25;18.62;-6.00
19340;HTU21D;9804;52.350;6.684;2022-07-29T07:44:51;18.96;-6.00
19340;HTU21D;9804;52.350;6.684;2022-07-29T07:47:16;18.94;-6.00
19340;HTU21D;9804;52.350;6.684;2022-07-29T07:49:48;19.09;-6.00
19340;HTU21D;9804;52.350;6.684;2022-07-29T07:52:15;19.01;-6.00
19340;HTU21D;9804;52.350;6.684;2022-07-29T07:54:41;19.01;-6.00
19340;HTU21D;9804;52.350;6.684;2022-07-29T07:57:08;18.91;-6.00
19340;HTU21D;9804;52.350;6.684;2022-07-29T07:59:33;19.05;-6.00
19340;HTU21D;9804;52.350;6.684;2022-07-29T08:01:58;19.31;-6.00
19340;HTU21D;9804;52.350;6.684;2022-07-29T08:04:25;19.83;-6.00
19340;HTU21D;9804;52.350;6.684;2022-07-29T08:06:50;20.22;-6.00
19340;HTU21D;9804;52.350;6.684;2022-07-29T08:09:16;20.41;-6.00
19340;HTU21D;9804;52.350;6.684;2022-07-29T08:11:41;19.65;-6.00
19340;HTU21D;9804;52.350;6.684;2022-07-29T08:14:06;20.05;-6.00
19340;HTU21D;9804;52.350;6.684;2022-07-29T08:16:32;19.92;-6.00
19340;HTU21D;9804;52.350;6.684;2022-07-29T08:18:57;20.29;-6.00
19340;HTU21D;9804;52.350;6.684;2022-07-29T08:21:23;20.50;-6.00
19340;HTU21D;9804;52.350;6.684;2022-07-29T08:23:50;20.68;-6.00
19340;HTU21D;9804;52.350;6.684;2022-07-29T08:26:18;20.68;-6.00
19340;HTU21D;9804;52.350;6.684;2022-07-29T08:28:45;20.94;-6.00
19340;HTU21D;9804;52.350;6.684;2022-07-29T08:31:12;20.91;-6.00
19340;HTU21D;9804;52.350;6.684;2022-07-29T08:33:38;20.86;-6.00
19340;HTU21D;9804;52.350;6.684;2022-07-29T08:36:03;20.47;-6.00
19340;HTU21D;9804;52.350;6.684;2022-07-29T08:38:28;20.13;-6.00
19340;HTU21D;9804;52.350;6.684;2022-07-29T08:40:54;20.46;-6.00
19340;HTU21D;9804;52.350;6.684;2022-07-29T08:43:19;20.00;-6.00
19340;HTU21D;9804;52.350;6.684;2022-07-29T08:45:49;20.14;-6.00
19340;HTU21D;9804;52.350;6.684;2022-07-29T08:48:18;19.94;-6.00
19340;HTU21D;9804;52.350;6.684;2022-07-29T08:50:45;20.13;-6.00
19340;HTU21D;9804;52.350;6.684;2022-07-29T08:53:13;20.32;-6.00
19340;HTU21D;9804;52.350;6.684;2022-07-29T08:55:46;20.25;-6.00
19340;HTU21D;9804;52.350;6.684;2022-07-29T08:58:13;20.12;-6.00
19340;HTU21D;9804;52.350;6.684;2022-07-29T09:00:42;19.96;-6.00
19340;HTU21D;9804;52.350;6.684;2022-07-29T09:03:09;19.92;-6.00
19340;HTU21D;9804;52.350;6.684;2022-07-29T09:05:41;19.94;-6.00
19340;HTU21D;9804;52.350;6.684;2022-07-29T09:08:07;19.85;-6.00
19340;HTU21D;9804;52.350;6.684;2022-07-29T09:10:35;19.99;-6.00
19340;HTU21D;9804;52.350;6.684;2022-07-29T09:13:00;20.07;-6.00
19340;HTU21D;9804;52.350;6.684;2022-07-29T09:15:26;19.99;-6.00
19340;HTU21D;9804;52.350;6.684;2022-07-29T09:17:51;20.06;-6.00
19340;HTU21D;9804;52.350;6.684;2022-07-29T09:20:18;20.01;-6.00
19340;HTU21D;9804;52.350;6.684;2022-07-29T09:22:44;20.13;-6.00
19340;HTU21D;9804;52.350;6.684;2022-07-29T09:25:14;20.13;-6.00
19340;HTU21D;9804;52.350;6.684;2022-07-29T09:27:40;19.94;-6.00
19340;HTU21D;9804;52.350;6.684;2022-07-29T09:30:09;19.95;-6.00
19340;HTU21D;9804;52.350;6.684;2022-07-29T09:32:55;20.11;-6.00
19340;HTU21D;9804;52.350;6.684;2022-07-29T09:35:22;20.17;-6.00
19340;HTU21D;9804;52.350;6.684;2022-07-29T09:37:49;20.06;-6.00
19340;HTU21D;9804;52.350;6.684;2022-07-29T09:40:19;19.94;-6.00
19340;HTU21D;9804;52.350;6.684;2022-07-29T09:42:46;20.07;-6.00
19340;HTU21D;9804;52.350;6.684;2022-07-29T09:45:12;20.06;-6.00
19340;HTU21D;9804;52.350;6.684;2022-07-29T09:47:48;19.95;-6.00
19340;HTU21D;9804;52.350;6.684;2022-07-29T09:50:16;20.16;-6.00
19340;HTU21D;9804;52.350;6.684;2022-07-29T09:52:49;20.21;-6.00
19340;HTU21D;9804;52.350;6.684;2022-07-29T09:55:16;20.03;-6.00
19340;HTU21D;9804;52.350;6.684;2022-07-29T09:57:42;20.21;-6.00
19340;HTU21D;9804;52.350;6.684;2022-07-29T10:00:09;20.31;-6.00
19340;HTU21D;9804;52.350;6.684;2022-07-29T10:02:36;20.31;-6.00
19340;HTU21D;9804;52.350;6.684;2022-07-29T10:05:04;20.33;-6.00
19340;HTU21D;9804;52.350;6.684;2022-07-29T10:07:54;20.27;-6.00
19340;HTU21D;9804;52.350;6.684;2022-07-29T10:10:28;20.18;-6.00
19340;HTU21D;9804;52.350;6.684;2022-07-29T10:13:13;20.50;-6.00
19340;HTU21D;9804;52.350;6.684;2022-07-29T10:15:41;20.44;-6.00
19340;HTU21D;9804;52.350;6.684;2022-07-29T10:18:09;20.15;-6.00
19340;HTU21D;9804;52.350;6.684;2022-07-29T10:20:35;20.12;-6.00
19340;HTU21D;9804;52.350;6.684;2022-07-29T10:23:01;20.48;-6.00
19340;HTU21D;9804;52.350;6.684;2022-07-29T10:25:26;20.71;-6.00
19340;HTU21D;9804;52.350;6.684;2022-07-29T10:27:52;21.00;-6.00
19340;HTU21D;9804;52.350;6.684;2022-07-29T10:30:19;21.11;-6.00
19340;HTU21D;9804;52.350;6.684;2022-07-29T10:44:05;22.03;-6.00
19340;HTU21D;9804;52.350;6.684;2022-07-29T10:46:40;21.63;-6.00
19340;HTU21D;9804;52.350;6.684;2022-07-29T10:49:10;21.66;-6.00
19340;HTU21D;9804;52.350;6.684;2022-07-29T10:51:57;22.10;-6.00
19340;HTU21D;9804;52.350;6.684;2022-07-29T10:59:51;22.49;-6.00
19340;HTU21D;9804;52.350;6.684;2022-07-29T11:05:15;22.50;-6.00
19340;HTU21D;9804;52.350;6.684;2022-07-29T11:08:20;22.16;-6.00
19340;HTU21D;9804;52.350;6.684;2022-07-29T11:10:52;22.11;-6.00
19340;HTU21D;9804;52.350;6.684;2022-07-29T11:16:09;22.22;-6.00
19340;HTU21D;9804;52.350;6.684;2022-07-29T11:18:34;22.27;-6.00
19340;HTU21D;9804;52.350;6.684;2022-07-29T11:20:59;22.69;-6.00
19340;HTU21D;9804;52.350;6.684;2022-07-29T11:23:34;22.63;-6.00
19340;HTU21D;9804;52.350;6.684;2022-07-29T11:26:18;23.23;-6.00
19340;HTU21D;9804;52.350;6.684;2022-07-29T11:31:38;23.87;-6.00
19340;HTU21D;9804;52.350;6.684;2022-07-29T11:34:27;24.48;-6.00
19340;HTU21D;9804;52.350;6.684;2022-07-29T11:39:32;24.60;-6.00
19340;HTU21D;9804;52.350;6.684;2022-07-29T11:47:20;24.26;-6.00
19340;HTU21D;9804;52.350;6.684;2022-07-29T11:49:45;24.10;-6.00
19340;HTU21D;9804;52.350;6.684;2022-07-29T11:52:11;23.96;-6.00
19340;HTU21D;9804;52.350;6.684;2022-07-29T11:54:36;24.09;-6.00
19340;HTU21D;9804;52.350;6.684;2022-07-29T11:57:06;24.30;-6.00
19340;HTU21D;9804;52.350;6.684;2022-07-29T11:59:39;24.39;-6.00
19340;HTU21D;9804;52.350;6.684;2022-07-29T12:02:04;24.62;-6.00
19340;HTU21D;9804;52.350;6.684;2022-07-29T12:04:30;24.89;-6.00
19340;HTU21D;9804;52.350;6.684;2022-07-29T12:06:56;24.84;-6.00
19340;HTU21D;9804;52.350;6.684;2022-07-29T12:09:23;25.19;-6.00
19340;HTU21D;9804;52.350;6.684;2022-07-29T12:11:49;25.40;-6.00
19340;HTU21D;9804;52.350;6.684;2022-07-29T12:14:39;25.61;-6.00
19340;HTU21D;9804;52.350;6.684;2022-07-29T12:17:28;25.06;-6.00
19340;HTU21D;9804;52.350;6.684;2022-07-29T12:19:58;25.32;-6.00
19340;HTU21D;9804;52.350;6.684;2022-07-29T12:22:35;25.18;-6.00
19340;HTU21D;9804;52.350;6.684;2022-07-29T12:25:12;25.31;-6.00
19340;HTU21D;9804;52.350;6.684;2022-07-29T12:27:40;25.18;-6.00
19340;HTU21D;9804;52.350;6.684;2022-07-29T12:30:12;25.23;-6.00
19340;HTU21D;9804;52.350;6.684;2022-07-29T12:32:47;25.45;-6.00
19340;HTU21D;9804;52.350;6.684;2022-07-29T12:35:18;25.52;-6.00
19340;HTU21D;9804;52.350;6.684;2022-07-29T12:37:48;25.47;-6.00
19340;HTU21D;9804;52.350;6.684;2022-07-29T12:40:15;24.91;-6.00
19340;HTU21D;9804;52.350;6.684;2022-07-29T12:43:20;25.37;-6.00
19340;HTU21D;9804;52.350;6.684;2022-07-29T12:45:51;24.89;-6.00
19340;HTU21D;9804;52.350;6.684;2022-07-29T12:48:35;25.44;-6.00
19340;HTU21D;9804;52.350;6.684;2022-07-29T12:51:02;26.15;-6.00
19340;HTU21D;9804;52.350;6.684;2022-07-29T12:53:28;26.07;-6.00
19340;HTU21D;9804;52.350;6.684;2022-07-29T12:55:55;26.34;-6.00
19340;HTU21D;9804;52.350;6.684;2022-07-29T12:58:38;26.78;-6.00
19340;HTU21D;9804;52.350;6.684;2022-07-29T13:09:01;26.55;-6.00
19340;HTU21D;9804;52.350;6.684;2022-07-29T13:11:38;26.62;-6.00
19340;HTU21D;9804;52.350;6.684;2022-07-29T13:14:05;26.55;-6.00
19340;HTU21D;9804;52.350;6.684;2022-07-29T13:16:30;26.52;-6.00
19340;HTU21D;9804;52.350;6.684;2022-07-29T13:19:10;26.76;-6.00
19340;HTU21D;9804;52.350;6.684;2022-07-29T13:21:37;26.86;-6.00
19340;HTU21D;9804;52.350;6.684;2022-07-29T13:24:03;27.00;-6.00
19340;HTU21D;9804;52.350;6.684;2022-07-29T13:26:29;27.07;-6.00
19340;HTU21D;9804;52.350;6.684;2022-07-29T13:28:54;27.16;-6.00
19340;HTU21D;9804;52.350;6.684;2022-07-29T13:31:20;27.09;-6.00
19340;HTU21D;9804;52.350;6.684;2022-07-29T13:33:47;27.40;-6.00
19340;HTU21D;9804;52.350;6.684;2022-07-29T13:36:12;27.96;-6.00
19340;HTU21D;9804;52.350;6.684;2022-07-29T13:38:38;28.57;-6.00
19340;HTU21D;9804;52.350;6.684;2022-07-29T13:41:03;28.79;-6.00
19340;HTU21D;9804;52.350;6.684;2022-07-29T13:43:29;28.26;-6.00
19340;HTU21D;9804;52.350;6.684;2022-07-29T13:45:54;27.98;-6.00
19340;HTU21D;9804;52.350;6.684;2022-07-29T13:48:20;27.86;-6.00
19340;HTU21D;9804;52.350;6.684;2022-07-29T13:50:45;28.21;-6.00
19340;HTU21D;9804;52.350;6.684;2022-07-29T13:53:11;28.61;-6.00
19340;HTU21D;9804;52.350;6.684;2022-07-29T13:55:37;29.78;-6.00
19340;HTU21D;9804;52.350;6.684;2022-07-29T13:58:02;30.24;-6.00
19340;HTU21D;9804;52.350;6.684;2022-07-29T14:00:28;30.27;-6.00
19340;HTU21D;9804;52.350;6.684;2022-07-29T14:02:54;29.63;-6.00
19340;HTU21D;9804;52.350;6.684;2022-07-29T14:05:19;29.46;-6.00
19340;HTU21D;9804;52.350;6.684;2022-07-29T14:07:44;29.13;-6.00
19340;HTU21D;9804;52.350;6.684;2022-07-29T14:10:10;28.91;-6.00
19340;HTU21D;9804;52.350;6.684;2022-07-29T14:12:35;29.31;-6.00
19340;HTU21D;9804;52.350;6.684;2022-07-29T14:15:01;29.35;-6.00
19340;HTU21D;9804;52.350;6.684;2022-07-29T14:17:26;29.22;-6.00
19340;HTU21D;9804;52.350;6.684;2022-07-29T14:19:52;28.98;-6.00
19340;HTU21D;9804;52.350;6.684;2022-07-29T14:22:17;29.06;-6.00
19340;HTU21D;9804;52.350;6.684;2022-07-29T14:24:44;28.84;-6.00
19340;HTU21D;9804;52.350;6.684;2022-07-29T14:27:09;29.03;-6.00
19340;HTU21D;9804;52.350;6.684;2022-07-29T14:29:35;29.48;-6.00
19340;HTU21D;9804;52.350;6.684;2022-07-29T14:32:00;29.56;-6.00
19340;HTU21D;9804;52.350;6.684;2022-07-29T14:34:26;29.21;-6.00
19340;HTU21D;9804;52.350;6.684;2022-07-29T14:36:51;29.50;-6.00
19340;HTU21D;9804;52.350;6.684;2022-07-29T14:39:18;29.51;-6.00
19340;HTU21D;9804;52.350;6.684;2022-07-29T14:41:44;29.97;-6.00
19340;HTU21D;9804;52.350;6.684;2022-07-29T14:44:09;29.96;-6.00
19340;HTU21D;9804;52.350;6.684;2022-07-29T14:46:35;29.65;-6.00
19340;HTU21D;9804;52.350;6.684;2022-07-29T14:49:00;29.64;-6.00
19340;HTU21D;9804;52.350;6.684;2022-07-29T14:51:25;29.46;-6.00
19340;HTU21D;9804;52.350;6.684;2022-07-29T14:53:51;29.95;-6.00
19340;HTU21D;9804;52.350;6.684;2022-07-29T14:56:16;30.51;-6.00
19340;HTU21D;9804;52.350;6.684;2022-07-29T14:58:42;30.34;-6.00
19340;HTU21D;9804;52.350;6.684;2022-07-29T15:01:07;30.05;-6.00
19340;HTU21D;9804;52.350;6.684;2022-07-29T15:03:32;30.04;-6.00
19340;HTU21D;9804;52.350;6.684;2022-07-29T15:05:58;29.82;-6.00
19340;HTU21D;9804;52.350;6.684;2022-07-29T15:08:23;29.37;-6.00
19340;HTU21D;9804;52.350;6.684;2022-07-29T15:10:50;30.01;-6.00
19340;HTU21D;9804;52.350;6.684;2022-07-29T15:13:16;30.33;-6.00
19340;HTU21D;9804;52.350;6.684;2022-07-29T15:15:41;30.28;-6.00
19340;HTU21D;9804;52.350;6.684;2022-07-29T15:18:06;30.19;-6.00
19340;HTU21D;9804;52.350;6.684;2022-07-29T15:20:32;30.55;-6.00
19340;HTU21D;9804;52.350;6.684;2022-07-29T15:22:57;30.37;-6.00
19340;HTU21D;9804;52.350;6.684;2022-07-29T15:25:24;30.65;-6.00
19340;HTU21D;9804;52.350;6.684;2022-07-29T15:27:50;30.66;-6.00
19340;HTU21D;9804;52.350;6.684;2022-07-29T15:30:16;30.74;-6.00
19340;HTU21D;9804;52.350;6.684;2022-07-29T15:32:45;30.95;-6.00
19340;HTU21D;9804;52.350;6.684;2022-07-29T15:35:11;31.26;-6.00
19340;HTU21D;9804;52.350;6.684;2022-07-29T15:37:39;31.93;-6.00
19340;HTU21D;9804;52.350;6.684;2022-07-29T15:40:05;30.99;-6.00
19340;HTU21D;9804;52.350;6.684;2022-07-29T15:42:31;31.10;-6.00
19340;HTU21D;9804;52.350;6.684;2022-07-29T15:44:56;31.75;-6.00
19340;HTU21D;9804;52.350;6.684;2022-07-29T15:47:21;31.55;-6.00
19340;HTU21D;9804;52.350;6.684;2022-07-29T15:49:47;31.72;-6.00
19340;HTU21D;9804;52.350;6.684;2022-07-29T15:52:14;31.73;-6.00
19340;HTU21D;9804;52.350;6.684;2022-07-29T15:54:39;31.56;-6.00
19340;HTU21D;9804;52.350;6.684;2022-07-29T15:57:08;30.77;-6.00
19340;HTU21D;9804;52.350;6.684;2022-07-29T15:59:33;31.95;-6.00
19340;HTU21D;9804;52.350;6.684;2022-07-29T16:01:59;31.80;-6.00
19340;HTU21D;9804;52.350;6.684;2022-07-29T16:04:25;31.65;-6.00
19340;HTU21D;9804;52.350;6.684;2022-07-29T16:06:51;31.48;-6.00
19340;HTU21D;9804;52.350;6.684;2022-07-29T16:09:17;31.44;-6.00
19340;HTU21D;9804;52.350;6.684;2022-07-29T16:11:42;31.38;-6.00
19340;HTU21D;9804;52.350;6.684;2022-07-29T16:14:08;31.34;-6.00
19340;HTU21D;9804;52.350;6.684;2022-07-29T16:16:35;31.35;-6.00
19340;HTU21D;9804;52.350;6.684;2022-07-29T16:19:02;31.39;-6.00
19340;HTU21D;9804;52.350;6.684;2022-07-29T16:21:27;31.67;-6.00
19340;HTU21D;9804;52.350;6.684;2022-07-29T16:23:53;31.31;-6.00
19340;HTU21D;9804;52.350;6.684;2022-07-29T16:26:18;31.73;-6.00